sensor_id;sensor_type;location;lat;lon;timestamp;temperature;humidity
935;DHT22;454;53.254;10.400;2023-08-06T05:44:34;15.40;99.90
935;DHT22;454;53.254;10.400;2023-08-06T06:32:02;16.00;99.90
935;DHT22;454;53.254;10.400;2023-08-06T06:34:29;15.90;99.90
935;DHT22;454;53.254;10.400;2023-08-06T06:36:55;16.00;99.90
935;DHT22;454;53.254;10.400;2023-08-06T06:39:22;16.00;99.90
935;DHT22;454;53.254;10.400;2023-08-06T06:41:49;16.10;99.90
935;DHT22;454;53.254;10.400;2023-08-06T06:44:15;16.10;99.90
935;DHT22;454;53.254;10.400;2023-08-06T06:46:42;16.10;99.90
935;DHT22;454;53.254;10.400;2023-08-06T06:49:10;16.10;99.90
935;DHT22;454;53.254;10.400;2023-08-06T06:51:37;16.20;99.90
935;DHT22;454;53.254;10.400;2023-08-06T06:54:03;16.20;99.90
935;DHT22;454;53.254;10.400;2023-08-06T06:56:30;16.20;99.90
935;DHT22;454;53.254;10.400;2023-08-06T06:58:57;16.20;99.90
935;DHT22;454;53.254;10.400;2023-08-06T07:01:23;16.20;99.90
935;DHT22;454;53.254;10.400;2023-08-06T07:03:50;16.20;99.90
935;DHT22;454;53.254;10.400;2023-08-06T07:06:18;16.20;99.90
935;DHT22;454;53.254;10.400;2023-08-06T07:08:45;16.20;99.90
935;DHT22;454;53.254;10.400;2023-08-06T07:11:11;16.20;99.90
935;DHT22;454;53.254;10.400;2023-08-06T07:13:38;16.20;99.90
935;DHT22;454;53.254;10.400;2023-08-06T07:16:05;16.30;99.90
935;DHT22;454;53.254;10.400;2023-08-06T07:18:31;16.30;99.90
935;DHT22;454;53.254;10.400;2023-08-06T07:20:58;16.30;99.90
935;DHT22;454;53.254;10.400;2023-08-06T07:23:26;16.40;99.90
935;DHT22;454;53.254;10.400;2023-08-06T07:25:53;16.50;99.90
935;DHT22;454;53.254;10.400;2023-08-06T07:28:20;16.50;99.90
935;DHT22;454;53.254;10.400;2023-08-06T07:30:47;16.50;99.90
935;DHT22;454;53.254;10.400;2023-08-06T07:33:14;16.40;99.90
935;DHT22;454;53.254;10.400;2023-08-06T07:35:41;16.40;99.90
935;DHT22;454;53.254;10.400;2023-08-06T07:38:08;16.50;99.90
935;DHT22;454;53.254;10.400;2023-08-06T07:40:36;16.50;99.90
935;DHT22;454;53.254;10.400;2023-08-06T07:43:03;16.60;99.90
935;DHT22;454;53.254;10.400;2023-08-06T07:45:33;16.60;99.90
935;DHT22;454;53.254;10.400;2023-08-06T07:48:00;16.70;99.90
935;DHT22;454;53.254;10.400;2023-08-06T07:50:26;16.70;99.90
935;DHT22;454;53.254;10.400;2023-08-06T07:52:53;16.70;99.90
935;DHT22;454;53.254;10.400;2023-08-06T07:55:20;16.70;99.90
935;DHT22;454;53.254;10.400;2023-08-06T07:57:48;16.70;99.90
935;DHT22;454;53.254;10.400;2023-08-06T08:00:14;16.60;99.90
935;DHT22;454;53.254;10.400;2023-08-06T08:02:41;16.60;99.90
935;DHT22;454;53.254;10.400;2023-08-06T08:05:08;16.60;99.90
935;DHT22;454;53.254;10.400;2023-08-06T08:07:35;16.50;99.90
935;DHT22;454;53.254;10.400;2023-08-06T08:10:01;16.40;99.90
935;DHT22;454;53.254;10.400;2023-08-06T08:12:28;16.40;99.90
935;DHT22;454;53.254;10.400;2023-08-06T08:14:56;16.50;99.90
935;DHT22;454;53.254;10.400;2023-08-06T08:17:23;16.50;99.90
935;DHT22;454;53.254;10.400;2023-08-06T08:19:50;16.60;99.90
935;DHT22;454;53.254;10.400;2023-08-06T08:22:16;16.60;99.90
935;DHT22;454;53.254;10.400;2023-08-06T08:24:43;16.60;99.90
935;DHT22;454;53.254;10.400;2023-08-06T08:27:10;16.60;99.90
935;DHT22;454;53.254;10.400;2023-08-06T08:29:36;16.60;99.90
935;DHT22;454;53.254;10.400;2023-08-06T08:32:05;16.60;99.90
935;DHT22;454;53.254;10.400;2023-08-06T08:34:31;16.70;99.90
935;DHT22;454;53.254;10.400;2023-08-06T08:36:58;16.70;99.90
935;DHT22;454;53.254;10.400;2023-08-06T08:39:25;16.70;99.90
935;DHT22;454;53.254;10.400;2023-08-06T08:41:52;16.80;99.90
935;DHT22;454;53.254;10.400;2023-08-06T08:44:19;16.70;99.90
935;DHT22;454;53.254;10.400;2023-08-06T08:46:46;16.70;99.90
935;DHT22;454;53.254;10.400;2023-08-06T08:49:16;16.70;99.90
935;DHT22;454;53.254;10.400;2023-08-06T08:51:45;16.70;99.90
935;DHT22;454;53.254;10.400;2023-08-06T08:54:13;16.60;99.90
935;DHT22;454;53.254;10.400;2023-08-06T08:56:41;16.60;99.90
935;DHT22;454;53.254;10.400;2023-08-06T08:59:09;16.70;99.90
935;DHT22;454;53.254;10.400;2023-08-06T09:01:37;16.80;99.90
935;DHT22;454;53.254;10.400;2023-08-06T09:04:06;16.90;99.90
935;DHT22;454;53.254;10.400;2023-08-06T09:06:37;16.80;99.90
935;DHT22;454;53.254;10.400;2023-08-06T09:09:08;16.90;99.90
935;DHT22;454;53.254;10.400;2023-08-06T09:11:42;16.90;99.90
935;DHT22;454;53.254;10.400;2023-08-06T09:14:10;16.90;99.90
935;DHT22;454;53.254;10.400;2023-08-06T09:16:37;16.90;99.90
935;DHT22;454;53.254;10.400;2023-08-06T09:19:07;17.00;99.90
935;DHT22;454;53.254;10.400;2023-08-06T09:21:37;17.00;99.90
935;DHT22;454;53.254;10.400;2023-08-06T09:24:08;17.20;99.90
935;DHT22;454;53.254;10.400;2023-08-06T09:26:36;17.30;99.90
935;DHT22;454;53.254;10.400;2023-08-06T09:29:05;17.30;99.90
935;DHT22;454;53.254;10.400;2023-08-06T09:31:40;17.30;99.90
935;DHT22;454;53.254;10.400;2023-08-06T09:34:10;17.10;99.90
935;DHT22;454;53.254;10.400;2023-08-06T09:36:41;17.20;99.90
935;DHT22;454;53.254;10.400;2023-08-06T09:39:13;17.20;99.90
935;DHT22;454;53.254;10.400;2023-08-06T09:41:40;17.30;99.90
935;DHT22;454;53.254;10.400;2023-08-06T09:44:17;17.50;99.90
935;DHT22;454;53.254;10.400;2023-08-06T09:46:47;17.50;99.90
935;DHT22;454;53.254;10.400;2023-08-06T09:49:14;17.60;99.90
935;DHT22;454;53.254;10.400;2023-08-06T09:51:42;17.70;99.90
935;DHT22;454;53.254;10.400;2023-08-06T09:54:12;17.70;99.90
935;DHT22;454;53.254;10.400;2023-08-06T09:56:39;17.80;99.90
935;DHT22;454;53.254;10.400;2023-08-06T09:59:07;17.60;99.90
935;DHT22;454;53.254;10.400;2023-08-06T10:01:34;17.60;99.90
935;DHT22;454;53.254;10.400;2023-08-06T10:04:03;17.70;99.90
935;DHT22;454;53.254;10.400;2023-08-06T10:06:31;17.90;99.90
935;DHT22;454;53.254;10.400;2023-08-06T10:09:01;17.90;99.90
935;DHT22;454;53.254;10.400;2023-08-06T10:11:29;18.10;99.90
935;DHT22;454;53.254;10.400;2023-08-06T10:14:02;18.10;99.90
935;DHT22;454;53.254;10.400;2023-08-06T10:16:31;18.20;99.90
935;DHT22;454;53.254;10.400;2023-08-06T10:18:59;18.40;99.90
935;DHT22;454;53.254;10.400;2023-08-06T10:21:27;18.30;99.90
935;DHT22;454;53.254;10.400;2023-08-06T10:23:56;18.20;99.90
935;DHT22;454;53.254;10.400;2023-08-06T10:26:26;18.30;99.90
935;DHT22;454;53.254;10.400;2023-08-06T10:28:54;18.50;99.90
935;DHT22;454;53.254;10.400;2023-08-06T10:31:25;18.50;99.90
935;DHT22;454;53.254;10.400;2023-08-06T10:34:12;18.40;99.90
935;DHT22;454;53.254;10.400;2023-08-06T10:36:44;18.30;99.90
935;DHT22;454;53.254;10.400;2023-08-06T10:39:13;18.20;99.90
935;DHT22;454;53.254;10.400;2023-08-06T10:41:42;18.20;99.90
935;DHT22;454;53.254;10.400;2023-08-06T10:44:10;18.30;99.90
935;DHT22;454;53.254;10.400;2023-08-06T10:46:37;18.40;99.90
935;DHT22;454;53.254;10.400;2023-08-06T10:49:04;18.30;99.90
935;DHT22;454;53.254;10.400;2023-08-06T10:51:32;18.50;99.90
935;DHT22;454;53.254;10.400;2023-08-06T10:53:59;18.70;99.90
935;DHT22;454;53.254;10.400;2023-08-06T10:56:26;18.90;99.90
935;DHT22;454;53.254;10.400;2023-08-06T10:58:56;18.90;99.90
935;DHT22;454;53.254;10.400;2023-08-06T11:01:23;19.10;99.90
935;DHT22;454;53.254;10.400;2023-08-06T11:03:51;19.40;99.90
935;DHT22;454;53.254;10.400;2023-08-06T11:06:19;19.50;99.90
935;DHT22;454;53.254;10.400;2023-08-06T11:08:50;19.60;99.90
935;DHT22;454;53.254;10.400;2023-08-06T11:11:17;19.70;99.90
935;DHT22;454;53.254;10.400;2023-08-06T11:13:45;19.70;99.90
935;DHT22;454;53.254;10.400;2023-08-06T11:16:14;19.70;99.90
935;DHT22;454;53.254;10.400;2023-08-06T11:18:42;19.80;99.90
935;DHT22;454;53.254;10.400;2023-08-06T11:21:09;19.90;99.90
935;DHT22;454;53.254;10.400;2023-08-06T11:23:35;20.00;99.90
935;DHT22;454;53.254;10.400;2023-08-06T11:26:02;19.90;99.90
935;DHT22;454;53.254;10.400;2023-08-06T11:28:29;19.90;99.90
935;DHT22;454;53.254;10.400;2023-08-06T11:30:55;19.80;99.90
935;DHT22;454;53.254;10.400;2023-08-06T11:33:28;19.80;99.90
935;DHT22;454;53.254;10.400;2023-08-06T11:35:55;19.80;99.90
935;DHT22;454;53.254;10.400;2023-08-06T11:38:24;19.80;99.90
935;DHT22;454;53.254;10.400;2023-08-06T11:40:51;19.80;99.90
935;DHT22;454;53.254;10.400;2023-08-06T11:43:19;19.80;99.90
935;DHT22;454;53.254;10.400;2023-08-06T11:45:48;19.70;99.90
935;DHT22;454;53.254;10.400;2023-08-06T11:48:16;19.80;99.90
935;DHT22;454;53.254;10.400;2023-08-06T11:50:45;20.00;99.90
935;DHT22;454;53.254;10.400;2023-08-06T11:53:13;20.10;99.90
935;DHT22;454;53.254;10.400;2023-08-06T11:55:41;20.20;99.90
935;DHT22;454;53.254;10.400;2023-08-06T11:58:09;20.20;99.90
935;DHT22;454;53.254;10.400;2023-08-06T12:00:36;20.10;99.90
935;DHT22;454;53.254;10.400;2023-08-06T12:03:05;19.90;99.90
935;DHT22;454;53.254;10.400;2023-08-06T12:05:32;19.90;99.90
935;DHT22;454;53.254;10.400;2023-08-06T12:08:01;19.80;99.90
935;DHT22;454;53.254;10.400;2023-08-06T12:10:30;19.60;99.90
935;DHT22;454;53.254;10.400;2023-08-06T12:12:57;19.60;99.90
935;DHT22;454;53.254;10.400;2023-08-06T12:15:23;19.60;99.90
935;DHT22;454;53.254;10.400;2023-08-06T12:17:50;19.50;99.90
935;DHT22;454;53.254;10.400;2023-08-06T12:20:17;19.60;99.90
935;DHT22;454;53.254;10.400;2023-08-06T12:22:44;19.80;99.90
935;DHT22;454;53.254;10.400;2023-08-06T12:25:13;19.90;99.90
935;DHT22;454;53.254;10.400;2023-08-06T12:27:40;19.90;99.90
935;DHT22;454;53.254;10.400;2023-08-06T12:30:08;19.90;99.90
935;DHT22;454;53.254;10.400;2023-08-06T12:32:35;20.00;99.90
935;DHT22;454;53.254;10.400;2023-08-06T12:35:02;19.90;99.90
935;DHT22;454;53.254;10.400;2023-08-06T12:37:30;20.00;99.90
935;DHT22;454;53.254;10.400;2023-08-06T12:39:56;20.10;99.90
935;DHT22;454;53.254;10.400;2023-08-06T12:42:24;20.30;99.90
935;DHT22;454;53.254;10.400;2023-08-06T12:44:51;20.40;99.90
935;DHT22;454;53.254;10.400;2023-08-06T12:47:18;20.20;99.90
935;DHT22;454;53.254;10.400;2023-08-06T12:49:45;20.10;99.90
935;DHT22;454;53.254;10.400;2023-08-06T12:52:12;20.10;99.90
935;DHT22;454;53.254;10.400;2023-08-06T12:54:41;20.30;99.90
935;DHT22;454;53.254;10.400;2023-08-06T12:57:08;20.40;99.90
935;DHT22;454;53.254;10.400;2023-08-06T12:59:36;20.40;99.90
935;DHT22;454;53.254;10.400;2023-08-06T13:02:03;20.50;99.90
935;DHT22;454;53.254;10.400;2023-08-06T13:04:29;20.50;99.90
935;DHT22;454;53.254;10.400;2023-08-06T13:06:57;20.60;99.90
935;DHT22;454;53.254;10.400;2023-08-06T13:09:23;20.50;99.90
935;DHT22;454;53.254;10.400;2023-08-06T13:11:51;20.50;99.90
935;DHT22;454;53.254;10.400;2023-08-06T13:14:18;20.50;99.90
935;DHT22;454;53.254;10.400;2023-08-06T13:16:46;20.50;99.90
935;DHT22;454;53.254;10.400;2023-08-06T13:19:13;20.70;99.90
935;DHT22;454;53.254;10.400;2023-08-06T13:21:59;20.70;99.90
935;DHT22;454;53.254;10.400;2023-08-06T13:24:27;20.50;99.90
935;DHT22;454;53.254;10.400;2023-08-06T13:26:54;20.40;99.90
935;DHT22;454;53.254;10.400;2023-08-06T13:29:21;20.30;99.90
935;DHT22;454;53.254;10.400;2023-08-06T13:31:48;20.30;99.90
935;DHT22;454;53.254;10.400;2023-08-06T13:34:15;20.30;99.90
935;DHT22;454;53.254;10.400;2023-08-06T13:36:43;20.30;99.90
935;DHT22;454;53.254;10.400;2023-08-06T13:39:09;20.30;99.90
935;DHT22;454;53.254;10.400;2023-08-06T13:41:37;20.30;99.90
935;DHT22;454;53.254;10.400;2023-08-06T13:44:04;20.10;99.90
935;DHT22;454;53.254;10.400;2023-08-06T13:46:30;20.10;99.90
935;DHT22;454;53.254;10.400;2023-08-06T13:48:58;20.20;99.90
935;DHT22;454;53.254;10.400;2023-08-06T13:51:25;20.30;99.90
935;DHT22;454;53.254;10.400;2023-08-06T13:53:52;20.20;99.90
935;DHT22;454;53.254;10.400;2023-08-06T13:56:19;20.20;99.90
935;DHT22;454;53.254;10.400;2023-08-06T13:58:46;20.10;99.90
935;DHT22;454;53.254;10.400;2023-08-06T14:01:13;20.20;99.90
935;DHT22;454;53.254;10.400;2023-08-06T14:03:43;20.30;99.90
935;DHT22;454;53.254;10.400;2023-08-06T14:06:11;20.30;99.90
935;DHT22;454;53.254;10.400;2023-08-06T14:08:37;20.30;99.90
935;DHT22;454;53.254;10.400;2023-08-06T14:11:05;20.10;99.90
935;DHT22;454;53.254;10.400;2023-08-06T14:13:32;20.30;99.90
935;DHT22;454;53.254;10.400;2023-08-06T14:15:59;20.40;99.90
935;DHT22;454;53.254;10.400;2023-08-06T14:18:25;20.40;99.90
935;DHT22;454;53.254;10.400;2023-08-06T14:20:53;20.50;99.90
935;DHT22;454;53.254;10.400;2023-08-06T14:23:21;20.30;99.90
935;DHT22;454;53.254;10.400;2023-08-06T14:25:48;20.30;99.90
935;DHT22;454;53.254;10.400;2023-08-06T14:28:14;20.40;99.90
935;DHT22;454;53.254;10.400;2023-08-06T14:30:41;20.40;99.90
935;DHT22;454;53.254;10.400;2023-08-06T14:33:07;20.40;99.90
935;DHT22;454;53.254;10.400;2023-08-06T14:35:34;20.50;99.90
935;DHT22;454;53.254;10.400;2023-08-06T14:38:01;20.70;99.90
935;DHT22;454;53.254;10.400;2023-08-06T14:40:29;20.80;99.90
935;DHT22;454;53.254;10.400;2023-08-06T14:42:59;20.70;99.90
935;DHT22;454;53.254;10.400;2023-08-06T14:45:26;20.80;99.90
935;DHT22;454;53.254;10.400;2023-08-06T14:47:53;20.90;99.90
935;DHT22;454;53.254;10.400;2023-08-06T14:50:20;20.80;99.90
935;DHT22;454;53.254;10.400;2023-08-06T14:52:46;20.70;99.90
935;DHT22;454;53.254;10.400;2023-08-06T14:55:17;20.70;99.90
935;DHT22;454;53.254;10.400;2023-08-06T14:57:50;20.70;99.90
935;DHT22;454;53.254;10.400;2023-08-06T15:00:17;20.60;99.90
935;DHT22;454;53.254;10.400;2023-08-06T15:02:44;20.40;99.90
935;DHT22;454;53.254;10.400;2023-08-06T15:05:11;20.40;99.90
935;DHT22;454;53.254;10.400;2023-08-06T15:07:37;20.40;99.90
935;DHT22;454;53.254;10.400;2023-08-06T15:10:06;20.40;99.90
935;DHT22;454;53.254;10.400;2023-08-06T15:12:33;20.40;99.90
935;DHT22;454;53.254;10.400;2023-08-06T15:15:01;20.50;99.90
935;DHT22;454;53.254;10.400;2023-08-06T15:17:28;20.60;99.90
935;DHT22;454;53.254;10.400;2023-08-06T15:19:56;20.60;99.90
935;DHT22;454;53.254;10.400;2023-08-06T15:22:24;20.40;99.90
935;DHT22;454;53.254;10.400;2023-08-06T15:24:50;20.20;99.90
935;DHT22;454;53.254;10.400;2023-08-06T15:27:17;20.30;99.90
935;DHT22;454;53.254;10.400;2023-08-06T15:29:44;20.20;99.90
935;DHT22;454;53.254;10.400;2023-08-06T15:32:12;20.20;99.90
935;DHT22;454;53.254;10.400;2023-08-06T15:34:39;20.10;99.90
935;DHT22;454;53.254;10.400;2023-08-06T15:37:06;20.00;99.90
935;DHT22;454;53.254;10.400;2023-08-06T15:39:33;19.90;99.90
935;DHT22;454;53.254;10.400;2023-08-06T15:41:59;19.80;99.90
935;DHT22;454;53.254;10.400;2023-08-06T15:44:26;19.80;99.90
935;DHT22;454;53.254;10.400;2023-08-06T15:46:53;19.80;99.90
935;DHT22;454;53.254;10.400;2023-08-06T15:49:21;19.80;99.90
935;DHT22;454;53.254;10.400;2023-08-06T15:51:47;19.80;99.90
935;DHT22;454;53.254;10.400;2023-08-06T15:54:14;19.90;99.90
935;DHT22;454;53.254;10.400;2023-08-06T15:56:41;19.90;99.90
935;DHT22;454;53.254;10.400;2023-08-06T15:59:23;19.80;99.90
935;DHT22;454;53.254;10.400;2023-08-06T16:01:50;19.80;99.90
935;DHT22;454;53.254;10.400;2023-08-06T16:04:17;19.80;99.90
935;DHT22;454;53.254;10.400;2023-08-06T16:06:45;19.80;99.90
935;DHT22;454;53.254;10.400;2023-08-06T16:09:12;19.70;99.90
935;DHT22;454;53.254;10.400;2023-08-06T16:11:40;19.70;99.90
935;DHT22;454;53.254;10.400;2023-08-06T16:14:07;19.70;99.90
935;DHT22;454;53.254;10.400;2023-08-06T16:16:34;19.60;99.90
935;DHT22;454;53.254;10.400;2023-08-06T16:19:01;19.60;99.90
935;DHT22;454;53.254;10.400;2023-08-06T16:21:28;19.50;99.90
935;DHT22;454;53.254;10.400;2023-08-06T16:23:56;19.40;99.90
935;DHT22;454;53.254;10.400;2023-08-06T16:26:22;19.30;99.90
935;DHT22;454;53.254;10.400;2023-08-06T16:28:49;19.20;99.90
935;DHT22;454;53.254;10.400;2023-08-06T16:31:16;19.10;99.90
935;DHT22;454;53.254;10.400;2023-08-06T16:33:42;19.00;99.90
935;DHT22;454;53.254;10.400;2023-08-06T16:36:09;18.90;99.90
935;DHT22;454;53.254;10.400;2023-08-06T16:38:36;18.80;99.90
935;DHT22;454;53.254;10.400;2023-08-06T16:41:04;18.70;99.90
935;DHT22;454;53.254;10.400;2023-08-06T16:43:30;18.50;99.90
935;DHT22;454;53.254;10.400;2023-08-06T16:45:57;18.40;99.90
935;DHT22;454;53.254;10.400;2023-08-06T16:48:24;18.40;99.90
935;DHT22;454;53.254;10.400;2023-08-06T16:50:53;18.30;99.90
935;DHT22;454;53.254;10.400;2023-08-06T16:53:20;18.20;99.90
935;DHT22;454;53.254;10.400;2023-08-06T16:55:47;18.20;99.90
935;DHT22;454;53.254;10.400;2023-08-06T16:58:15;18.20;99.90
935;DHT22;454;53.254;10.400;2023-08-06T17:00:44;18.20;99.90
935;DHT22;454;53.254;10.400;2023-08-06T17:03:10;18.10;99.90
935;DHT22;454;53.254;10.400;2023-08-06T17:05:37;18.10;99.90
935;DHT22;454;53.254;10.400;2023-08-06T17:08:04;18.10;99.90
935;DHT22;454;53.254;10.400;2023-08-06T17:10:31;18.00;99.90
935;DHT22;454;53.254;10.400;2023-08-06T17:12:58;18.00;99.90
935;DHT22;454;53.254;10.400;2023-08-06T17:15:26;18.00;99.90
935;DHT22;454;53.254;10.400;2023-08-06T17:17:53;18.10;99.90
935;DHT22;454;53.254;10.400;2023-08-06T17:20:20;18.10;99.90
935;DHT22;454;53.254;10.400;2023-08-06T17:22:46;18.10;99.90
935;DHT22;454;53.254;10.400;2023-08-06T17:25:13;18.10;99.90
935;DHT22;454;53.254;10.400;2023-08-06T17:27:40;18.00;99.90
935;DHT22;454;53.254;10.400;2023-08-06T17:30:07;17.90;99.90
935;DHT22;454;53.254;10.400;2023-08-06T17:32:35;17.90;99.90
935;DHT22;454;53.254;10.400;2023-08-06T17:35:05;17.90;99.90
935;DHT22;454;53.254;10.400;2023-08-06T17:37:32;17.90;99.90
935;DHT22;454;53.254;10.400;2023-08-06T17:39:58;17.80;99.90
935;DHT22;454;53.254;10.400;2023-08-06T17:42:25;17.80;99.90
935;DHT22;454;53.254;10.400;2023-08-06T17:44:52;17.80;99.90
935;DHT22;454;53.254;10.400;2023-08-06T17:47:18;17.80;99.90
935;DHT22;454;53.254;10.400;2023-08-06T17:49:47;17.80;99.90
935;DHT22;454;53.254;10.400;2023-08-06T17:52:13;17.80;99.90
935;DHT22;454;53.254;10.400;2023-08-06T17:54:40;17.70;99.90
935;DHT22;454;53.254;10.400;2023-08-06T17:57:07;17.80;99.90
935;DHT22;454;53.254;10.400;2023-08-06T17:59:33;17.70;99.90
935;DHT22;454;53.254;10.400;2023-08-06T18:02:00;17.70;99.90
935;DHT22;454;53.254;10.400;2023-08-06T18:04:27;17.70;99.90
935;DHT22;454;53.254;10.400;2023-08-06T18:06:55;17.70;99.90
935;DHT22;454;53.254;10.400;2023-08-06T18:09:21;17.70;99.90
935;DHT22;454;53.254;10.400;2023-08-06T18:11:48;17.70;99.90
935;DHT22;454;53.254;10.400;2023-08-06T18:14:15;17.60;99.90
935;DHT22;454;53.254;10.400;2023-08-06T18:16:41;17.60;99.90
935;DHT22;454;53.254;10.400;2023-08-06T18:19:08;17.60;99.90
935;DHT22;454;53.254;10.400;2023-08-06T18:21:35;17.60;99.90
935;DHT22;454;53.254;10.400;2023-08-06T18:24:03;17.60;99.90
935;DHT22;454;53.254;10.400;2023-08-06T18:26:30;17.50;99.90
935;DHT22;454;53.254;10.400;2023-08-06T18:28:56;17.50;99.90
935;DHT22;454;53.254;10.400;2023-08-06T18:31:23;17.50;99.90
935;DHT22;454;53.254;10.400;2023-08-06T18:33:50;17.40;99.90
935;DHT22;454;53.254;10.400;2023-08-06T18:36:17;17.50;99.90
935;DHT22;454;53.254;10.400;2023-08-06T18:38:43;17.40;99.90
935;DHT22;454;53.254;10.400;2023-08-06T18:41:16;17.40;99.90
935;DHT22;454;53.254;10.400;2023-08-06T18:43:43;17.40;99.90
935;DHT22;454;53.254;10.400;2023-08-06T18:46:11;17.30;99.90
935;DHT22;454;53.254;10.400;2023-08-06T18:48:37;17.30;99.90
935;DHT22;454;53.254;10.400;2023-08-06T18:51:04;17.30;99.90
935;DHT22;454;53.254;10.400;2023-08-06T18:53:31;17.30;99.90
935;DHT22;454;53.254;10.400;2023-08-06T18:55:57;17.30;99.90
935;DHT22;454;53.254;10.400;2023-08-06T18:58:25;17.20;99.90
935;DHT22;454;53.254;10.400;2023-08-06T19:00:56;17.20;99.90
935;DHT22;454;53.254;10.400;2023-08-06T19:03:22;17.20;99.90
935;DHT22;454;53.254;10.400;2023-08-06T19:05:49;17.20;99.90
935;DHT22;454;53.254;10.400;2023-08-06T19:08:16;17.10;99.90
935;DHT22;454;53.254;10.400;2023-08-06T19:10:44;17.10;99.90
935;DHT22;454;53.254;10.400;2023-08-06T19:13:11;17.10;99.90
935;DHT22;454;53.254;10.400;2023-08-06T19:15:44;17.00;99.90
935;DHT22;454;53.254;10.400;2023-08-06T19:18:11;17.10;99.90
935;DHT22;454;53.254;10.400;2023-08-06T19:20:41;17.00;99.90
935;DHT22;454;53.254;10.400;2023-08-06T19:23:07;17.00;99.90
935;DHT22;454;53.254;10.400;2023-08-06T19:25:40;17.00;99.90
935;DHT22;454;53.254;10.400;2023-08-06T19:28:06;17.00;99.90
935;DHT22;454;53.254;10.400;2023-08-06T19:30:36;16.90;99.90
935;DHT22;454;53.254;10.400;2023-08-06T19:33:06;17.00;99.90
935;DHT22;454;53.254;10.400;2023-08-06T19:35:35;17.00;99.90
935;DHT22;454;53.254;10.400;2023-08-06T19:38:02;16.90;99.90
935;DHT22;454;53.254;10.400;2023-08-06T19:40:29;16.90;99.90
935;DHT22;454;53.254;10.400;2023-08-06T19:42:55;17.00;99.90
935;DHT22;454;53.254;10.400;2023-08-06T19:45:22;16.90;99.90
935;DHT22;454;53.254;10.400;2023-08-06T19:47:49;16.80;99.90
935;DHT22;454;53.254;10.400;2023-08-06T19:50:17;16.80;99.90
935;DHT22;454;53.254;10.400;2023-08-06T19:52:43;16.80;99.90
935;DHT22;454;53.254;10.400;2023-08-06T19:55:11;16.70;99.90
935;DHT22;454;53.254;10.400;2023-08-06T19:57:38;16.70;99.90
935;DHT22;454;53.254;10.400;2023-08-06T20:00:06;16.70;99.90
935;DHT22;454;53.254;10.400;2023-08-06T20:02:33;16.70;99.90
935;DHT22;454;53.254;10.400;2023-08-06T20:05:00;16.70;99.90
935;DHT22;454;53.254;10.400;2023-08-06T20:07:29;16.70;99.90
935;DHT22;454;53.254;10.400;2023-08-06T20:09:56;16.60;99.90
935;DHT22;454;53.254;10.400;2023-08-06T20:12:23;16.60;99.90
935;DHT22;454;53.254;10.400;2023-08-06T20:14:50;16.70;99.90
935;DHT22;454;53.254;10.400;2023-08-06T20:17:17;16.60;99.90
935;DHT22;454;53.254;10.400;2023-08-06T20:19:43;16.60;99.90
935;DHT22;454;53.254;10.400;2023-08-06T20:22:10;16.60;99.90
935;DHT22;454;53.254;10.400;2023-08-06T20:24:38;16.60;99.90
935;DHT22;454;53.254;10.400;2023-08-06T20:27:05;16.50;99.90
935;DHT22;454;53.254;10.400;2023-08-06T20:29:32;16.60;99.90
935;DHT22;454;53.254;10.400;2023-08-06T20:31:59;16.50;99.90
935;DHT22;454;53.254;10.400;2023-08-06T20:34:25;16.50;99.90
935;DHT22;454;53.254;10.400;2023-08-06T20:36:52;16.50;99.90
935;DHT22;454;53.254;10.400;2023-08-06T20:39:19;16.50;99.90
935;DHT22;454;53.254;10.400;2023-08-06T20:41:47;16.40;99.90
935;DHT22;454;53.254;10.400;2023-08-06T20:44:13;16.40;99.90
935;DHT22;454;53.254;10.400;2023-08-06T20:46:40;16.40;99.90
935;DHT22;454;53.254;10.400;2023-08-06T20:49:07;16.40;99.90
935;DHT22;454;53.254;10.400;2023-08-06T20:51:33;16.40;99.90
935;DHT22;454;53.254;10.400;2023-08-06T20:54:00;16.40;99.90
935;DHT22;454;53.254;10.400;2023-08-06T20:56:27;16.30;99.90
935;DHT22;454;53.254;10.400;2023-08-06T20:58:55;16.30;99.90
